createdAt,value
2022-09-27T00:01:13.238Z,63.72
2022-09-27T00:03:40.989Z,63.87
2022-09-27T00:06:22.432Z,63.76
2022-09-27T00:08:49.592Z,63.76
2022-09-27T00:11:39.354Z,63.88
2022-09-27T00:14:08.522Z,64.06
2022-09-27T00:16:39.442Z,64.14
2022-09-27T00:19:20.516Z,63.97
2022-09-27T00:21:48.520Z,64.00
2022-09-27T00:24:20.226Z,63.97
2022-09-27T00:26:48.670Z,64.07
2022-09-27T00:29:19.031Z,64.04
2022-09-27T00:31:47.089Z,63.89
2022-09-27T00:34:22.368Z,64.09
2022-09-27T00:36:50.364Z,64.11
2022-09-27T00:39:17.864Z,64.25
2022-09-27T00:41:45.197Z,64.03
2022-09-27T00:44:27.553Z,63.94
2022-09-27T00:47:25.985Z,64.04
2022-09-27T00:50:02.713Z,63.91
2022-09-27T00:52:51.457Z,63.86
2022-09-27T00:55:30.418Z,63.86
2022-09-27T00:57:58.159Z,64.35
2022-09-27T01:00:25.431Z,64.14
2022-09-27T01:02:56.299Z,64.35
2022-09-27T01:05:28.457Z,64.22
2022-09-27T01:07:55.721Z,64.26
2022-09-27T01:10:23.962Z,64.35
2022-09-27T01:13:30.186Z,64.38
2022-09-27T01:16:24.049Z,64.49
2022-09-27T01:19:31.009Z,64.03
2022-09-27T01:22:13.928Z,64.13
2022-09-27T01:25:08.752Z,64.23
2022-09-27T01:28:12.810Z,64.23
2022-09-27T01:31:00.217Z,64.30
2022-09-27T01:34:05.710Z,64.45
2022-09-27T01:37:00.240Z,64.44
2022-09-27T01:39:52.870Z,64.48
2022-09-27T01:42:52.931Z,64.51
2022-09-27T01:45:26.265Z,64.43
2022-09-27T01:48:03.605Z,64.41
2022-09-27T01:50:44.764Z,64.48
2022-09-27T01:53:28.974Z,64.61
2022-09-27T01:55:58.569Z,64.49
2022-09-27T01:58:46.656Z,64.36
2022-09-27T02:01:18.791Z,64.18
2022-09-27T02:03:51.893Z,64.48
2022-09-27T02:06:31.213Z,64.52
2022-09-27T02:09:10.566Z,64.51
2022-09-27T02:11:45.489Z,64.55
2022-09-27T02:14:22.016Z,64.34
2022-09-27T02:16:54.884Z,64.50
2022-09-27T02:20:16.944Z,64.48
2022-09-27T02:23:17.286Z,64.51
2022-09-27T02:25:56.994Z,64.63
2022-09-27T02:28:45.711Z,64.44
2022-09-27T02:31:13.009Z,64.68
2022-09-27T02:33:52.788Z,64.62
2022-09-27T02:36:21.582Z,64.51
2022-09-27T02:38:49.823Z,64.44
2022-09-27T02:41:22.912Z,64.32
2022-09-27T02:43:57.731Z,63.96
2022-09-27T02:46:36.190Z,63.97
2022-09-27T02:49:19.659Z,64.09
2022-09-27T02:52:18.604Z,64.01
2022-09-27T02:55:22.221Z,64.35
2022-09-27T02:58:30.699Z,64.49
2022-09-27T03:01:33.581Z,64.39
2022-09-27T03:04:27.861Z,64.47
2022-09-27T03:07:00.123Z,64.62
2022-09-27T03:09:40.111Z,64.45
2022-09-27T03:12:07.280Z,64.40
2022-09-27T03:14:34.396Z,64.27
2022-09-27T03:17:01.648Z,64.22
2022-09-27T03:19:28.876Z,64.50
2022-09-27T03:21:56.091Z,64.26
2022-09-27T03:24:23.451Z,64.24
2022-09-27T03:26:50.812Z,64.24
2022-09-27T03:29:20.665Z,64.46
2022-09-27T03:31:47.905Z,64.68
2022-09-27T03:34:15.076Z,64.69
2022-09-27T03:36:42.301Z,64.80
2022-09-27T03:39:09.527Z,64.81
2022-09-27T03:41:37.229Z,64.82
2022-09-27T03:44:04.481Z,64.83
2022-09-27T03:46:31.786Z,64.88
2022-09-27T03:48:59.060Z,64.81
2022-09-27T03:51:26.838Z,64.77
2022-09-27T03:53:54.097Z,64.70
2022-09-27T03:56:21.214Z,64.68
2022-09-27T03:58:48.489Z,64.81
2022-09-27T04:01:15.867Z,64.78
2022-09-27T04:03:43.183Z,64.91
2022-09-27T04:06:10.402Z,64.89
2022-09-27T04:08:37.797Z,64.82
2022-09-27T04:11:05.080Z,64.85
2022-09-27T04:13:32.287Z,64.91
2022-09-27T04:15:59.667Z,64.65
2022-09-27T04:18:26.929Z,64.54
2022-09-27T04:20:54.153Z,64.71
2022-09-27T04:23:21.344Z,64.90
2022-09-27T04:25:48.515Z,64.84
2022-09-27T04:28:15.781Z,64.96
2022-09-27T04:30:43.050Z,64.82
2022-09-27T04:33:10.351Z,64.91
2022-09-27T04:35:37.533Z,64.76
2022-09-27T04:38:05.198Z,65.02
2022-09-27T04:40:35.383Z,64.69
2022-09-27T04:43:02.894Z,64.43
2022-09-27T04:45:30.445Z,64.47
2022-09-27T04:47:57.711Z,64.47
2022-09-27T04:50:25.149Z,64.32
2022-09-27T04:52:54.266Z,64.71
2022-09-27T04:55:22.416Z,64.59
2022-09-27T04:57:50.068Z,64.80
2022-09-27T05:00:17.940Z,64.74
2022-09-27T05:02:46.520Z,64.71
2022-09-27T05:05:14.862Z,64.68
2022-09-27T05:07:42.214Z,64.71
2022-09-27T05:10:10.329Z,64.75
2022-09-27T05:12:37.649Z,64.69
2022-09-27T05:15:05.764Z,64.67
2022-09-27T05:17:32.992Z,64.45
2022-09-27T05:20:00.335Z,64.55
2022-09-27T05:22:27.525Z,64.67
2022-09-27T05:24:54.629Z,64.65
2022-09-27T05:27:21.869Z,64.78
2022-09-27T05:29:49.115Z,64.92
2022-09-27T05:32:16.604Z,64.61
2022-09-27T05:34:43.851Z,64.62
2022-09-27T05:37:11.100Z,64.58
2022-09-27T05:39:38.231Z,64.50
2022-09-27T05:42:05.520Z,64.70
2022-09-27T05:44:32.713Z,64.64
2022-09-27T05:47:03.564Z,64.55
2022-09-27T05:49:31.034Z,64.73
2022-09-27T05:51:58.353Z,64.53
2022-09-27T05:54:25.826Z,64.54
2022-09-27T05:56:57.239Z,64.48
2022-09-27T05:59:26.274Z,64.49
2022-09-27T06:01:54.643Z,64.44
2022-09-27T06:04:22.356Z,64.44
2022-09-27T06:06:49.637Z,64.62
2022-09-27T06:09:17.751Z,64.50
2022-09-27T06:11:45.652Z,64.48
2022-09-27T06:14:14.125Z,64.40
2022-09-27T06:16:41.405Z,64.55
2022-09-27T06:19:08.968Z,64.44
2022-09-27T06:21:36.147Z,64.27
2022-09-27T06:24:03.779Z,64.08
2022-09-27T06:26:31.000Z,64.24
2022-09-27T06:28:58.228Z,64.07
2022-09-27T06:31:25.412Z,64.28
2022-09-27T06:33:52.607Z,64.38
2022-09-27T06:36:19.773Z,64.41
2022-09-27T06:38:46.904Z,64.42
2022-09-27T06:41:14.084Z,64.67
2022-09-27T06:43:41.234Z,64.85
2022-09-27T06:46:08.829Z,65.00
2022-09-27T06:48:36.420Z,65.10
2022-09-27T06:51:04.371Z,64.84
2022-09-27T06:53:31.947Z,64.74
2022-09-27T06:56:03.277Z,64.57
2022-09-27T06:58:30.536Z,64.53
2022-09-27T07:00:57.937Z,64.41
2022-09-27T07:03:28.476Z,64.36
2022-09-27T07:06:06.468Z,64.28
2022-09-27T07:08:33.825Z,64.28
2022-09-27T07:11:07.460Z,64.45
2022-09-27T07:13:35.675Z,64.38
2022-09-27T07:16:03.449Z,64.09
2022-09-27T07:18:30.751Z,63.83
2022-09-27T07:21:00.707Z,63.95
2022-09-27T07:23:28.211Z,63.90
2022-09-27T07:25:55.590Z,64.14
2022-09-27T07:28:23.192Z,63.89
2022-09-27T07:30:55.565Z,63.70
2022-09-27T07:33:23.273Z,64.04
2022-09-27T07:35:50.545Z,63.84
2022-09-27T07:38:17.745Z,63.42
2022-09-27T07:40:44.981Z,63.53
2022-09-27T07:43:12.478Z,63.79
2022-09-27T07:45:40.051Z,63.82
2022-09-27T07:48:11.305Z,63.84
2022-09-27T07:50:38.558Z,63.76
2022-09-27T07:53:05.903Z,63.76
2022-09-27T07:55:33.591Z,64.19
2022-09-27T07:58:10.554Z,64.48
2022-09-27T08:00:39.580Z,64.45
2022-09-27T08:03:13.566Z,64.33
2022-09-27T08:05:40.783Z,64.27
2022-09-27T08:08:08.527Z,64.52
2022-09-27T08:10:36.321Z,64.54
2022-09-27T08:13:05.467Z,64.58
2022-09-27T08:15:34.722Z,64.60
2022-09-27T08:18:02.177Z,64.76
2022-09-27T08:20:29.395Z,65.01
2022-09-27T08:22:56.664Z,64.88
2022-09-27T08:25:24.076Z,64.85
2022-09-27T08:27:59.780Z,64.65
2022-09-27T08:30:29.025Z,64.77
2022-09-27T08:33:01.907Z,64.59
2022-09-27T08:35:29.818Z,64.53
2022-09-27T08:37:59.868Z,63.53
2022-09-27T08:41:02.477Z,59.63
2022-09-27T08:44:14.417Z,57.67
2022-09-27T08:47:23.149Z,58.18
2022-09-27T08:50:11.902Z,59.54
2022-09-27T08:52:55.625Z,59.37
2022-09-27T08:55:45.242Z,59.81
2022-09-27T08:58:31.178Z,59.40
2022-09-27T09:01:04.447Z,59.83
2022-09-27T09:03:37.935Z,59.39
2022-09-27T09:06:29.182Z,59.63
2022-09-27T09:09:27.177Z,60.01
2022-09-27T09:12:12.122Z,60.48
2022-09-27T09:15:21.769Z,60.61
2022-09-27T09:18:02.472Z,60.56
2022-09-27T09:21:07.115Z,60.71
2022-09-27T09:23:52.734Z,60.84
2022-09-27T09:26:40.398Z,61.17
2022-09-27T09:29:31.477Z,61.10
2022-09-27T09:32:34.764Z,60.98
2022-09-27T09:35:10.856Z,60.88
2022-09-27T09:37:58.060Z,60.87
2022-09-27T09:40:42.503Z,60.75
2022-09-27T09:43:32.667Z,61.04
2022-09-27T09:46:22.923Z,61.52
2022-09-27T09:49:00.407Z,62.58
2022-09-27T09:51:36.292Z,62.71
2022-09-27T09:54:30.557Z,62.44
2022-09-27T09:57:33.922Z,62.81
2022-09-27T10:00:13.189Z,62.82
2022-09-27T10:02:44.819Z,62.89
2022-09-27T10:05:20.881Z,62.59
2022-09-27T10:07:51.233Z,62.17
2022-09-27T10:10:21.565Z,61.89
2022-09-27T10:12:50.580Z,62.04
2022-09-27T10:15:22.318Z,62.01
2022-09-27T10:17:54.628Z,62.11
2022-09-27T10:20:42.262Z,61.65
2022-09-27T10:23:17.519Z,61.60
2022-09-27T10:25:57.721Z,61.25
2022-09-27T10:28:43.882Z,61.24
2022-09-27T10:31:17.151Z,59.72
2022-09-27T10:34:02.389Z,59.45
2022-09-27T10:36:34.402Z,59.27
2022-09-27T10:39:05.945Z,57.46
2022-09-27T10:41:41.892Z,56.71
2022-09-27T10:44:32.141Z,56.13
2022-09-27T10:47:09.789Z,54.08
2022-09-27T10:49:41.345Z,53.63
2022-09-27T10:52:23.556Z,52.61
2022-09-27T10:54:57.971Z,51.67
2022-09-27T10:57:28.868Z,52.34
2022-09-27T11:00:08.438Z,53.39
2022-09-27T11:02:38.533Z,53.24
2022-09-27T11:05:37.571Z,50.74
2022-09-27T11:08:20.056Z,49.21
2022-09-27T11:11:14.649Z,48.00
2022-09-27T11:13:57.771Z,47.21
2022-09-27T11:16:50.899Z,44.68
2022-09-27T11:19:45.992Z,42.24
2022-09-27T11:22:28.950Z,43.12
2022-09-27T11:25:38.459Z,43.66
2022-09-27T11:28:19.666Z,45.52
2022-09-27T11:31:02.128Z,44.85
2022-09-27T11:33:57.590Z,41.84
2022-09-27T11:37:13.874Z,40.19
2022-09-27T11:40:16.076Z,38.02
2022-09-27T11:42:58.437Z,37.11
2022-09-27T11:46:03.190Z,37.10
2022-09-27T11:48:44.362Z,37.21
2022-09-27T11:51:37.551Z,35.59
2022-09-27T11:54:22.545Z,35.91
2022-09-27T11:57:11.256Z,36.04
2022-09-27T11:59:56.866Z,35.92
2022-09-27T12:02:58.225Z,35.16
2022-09-27T12:05:57.758Z,37.11
2022-09-27T12:08:54.177Z,37.45
2022-09-27T12:11:38.920Z,38.13
2022-09-27T12:14:38.927Z,38.68
2022-09-27T12:17:15.433Z,39.52
2022-09-27T12:19:50.170Z,41.08
2022-09-27T12:22:58.255Z,41.95
2022-09-27T12:25:32.194Z,41.74
2022-09-27T12:28:18.276Z,40.90
2022-09-27T12:31:10.840Z,44.40
2022-09-27T12:34:28.080Z,45.62
2022-09-27T12:37:24.508Z,44.52
2022-09-27T12:40:26.307Z,43.86
2022-09-27T12:43:24.456Z,42.94
2022-09-27T12:46:13.309Z,42.62
2022-09-27T12:49:27.839Z,42.20
2022-09-27T12:52:08.653Z,42.04
2022-09-27T12:55:13.683Z,43.14
2022-09-27T12:58:20.903Z,44.14
2022-09-27T13:01:23.001Z,43.96
2022-09-27T13:04:32.111Z,44.93
2022-09-27T13:07:30.537Z,45.50
2022-09-27T13:10:31.025Z,46.70
2022-09-27T13:12:59.955Z,46.90
2022-09-27T13:15:35.083Z,47.01
2022-09-27T13:18:07.122Z,46.72
2022-09-27T13:20:39.194Z,47.03
2022-09-27T13:23:18.744Z,47.89
2022-09-27T13:25:54.253Z,47.92
2022-09-27T13:28:31.804Z,47.92
2022-09-27T13:31:09.382Z,47.26
2022-09-27T13:33:52.632Z,47.64
2022-09-27T13:36:24.370Z,46.27
2022-09-27T13:39:16.601Z,46.90
2022-09-27T13:41:46.839Z,46.55
2022-09-27T13:44:49.384Z,47.28
2022-09-27T13:47:32.061Z,45.97
2022-09-27T13:50:39.528Z,46.19
2022-09-27T13:53:40.422Z,44.83
2022-09-27T13:56:49.279Z,44.05
2022-09-27T13:59:32.364Z,43.90
2022-09-27T14:02:27.163Z,43.42
2022-09-27T14:04:57.985Z,43.15
2022-09-27T14:07:37.126Z,43.05
2022-09-27T14:10:07.049Z,43.64
2022-09-27T14:12:39.292Z,43.84
2022-09-27T14:15:12.694Z,45.74
2022-09-27T14:17:43.454Z,44.30
2022-09-27T14:20:42.233Z,43.72
2022-09-27T14:23:25.340Z,44.22
2022-09-27T14:25:55.320Z,44.22
2022-09-27T14:28:26.273Z,47.23
2022-09-27T14:31:23.794Z,45.76
2022-09-27T14:34:05.573Z,48.18
2022-09-27T14:36:36.253Z,49.65
2022-09-27T14:39:21.540Z,49.84
2022-09-27T14:41:48.826Z,49.80
2022-09-27T14:44:25.889Z,48.41
2022-09-27T14:47:26.193Z,46.49
2022-09-27T14:50:17.012Z,48.59
2022-09-27T14:52:44.423Z,49.66
2022-09-27T14:55:19.704Z,49.33
2022-09-27T14:57:59.445Z,49.52
2022-09-27T15:00:33.843Z,50.65
2022-09-27T15:03:05.675Z,51.12
2022-09-27T15:05:35.208Z,50.75
2022-09-27T15:08:06.770Z,51.68
2022-09-27T15:10:37.324Z,51.86
2022-09-27T15:13:06.184Z,52.16
2022-09-27T15:15:38.727Z,52.88
2022-09-27T15:18:34.094Z,53.26
2022-09-27T15:21:02.757Z,53.91
2022-09-27T15:23:37.039Z,54.02
2022-09-27T15:26:27.159Z,54.47
2022-09-27T15:28:54.534Z,54.96
2022-09-27T15:31:35.087Z,55.07
2022-09-27T15:34:04.338Z,55.06
2022-09-27T15:36:58.210Z,55.28
2022-09-27T15:39:38.933Z,55.50
2022-09-27T15:42:13.709Z,55.67
2022-09-27T15:44:47.034Z,55.58
2022-09-27T15:47:32.507Z,55.64
2022-09-27T15:50:15.554Z,55.78
2022-09-27T15:52:48.905Z,56.22
2022-09-27T15:55:18.452Z,56.34
2022-09-27T15:57:54.193Z,56.39
2022-09-27T16:00:22.025Z,57.11
2022-09-27T16:02:49.647Z,57.12
2022-09-27T16:05:17.021Z,57.25
2022-09-27T16:07:44.378Z,57.03
2022-09-27T16:10:18.745Z,57.04
2022-09-27T16:12:49.418Z,57.04
2022-09-27T16:15:18.286Z,56.72
2022-09-27T16:17:46.675Z,56.55
2022-09-27T16:20:25.863Z,56.87
2022-09-27T16:22:58.261Z,57.21
2022-09-27T16:25:27.885Z,57.17
2022-09-27T16:28:02.181Z,57.23
2022-09-27T16:30:30.054Z,57.41
2022-09-27T16:32:57.814Z,57.42
2022-09-27T16:35:26.744Z,57.46
2022-09-27T16:37:54.509Z,57.77
2022-09-27T16:40:22.050Z,57.60
2022-09-27T16:42:49.861Z,57.41
2022-09-27T16:45:19.437Z,57.61
2022-09-27T16:47:47.516Z,57.54
2022-09-27T16:50:15.539Z,57.49
2022-09-27T16:52:43.121Z,57.37
2022-09-27T16:55:10.624Z,57.39
2022-09-27T16:57:37.827Z,57.20
2022-09-27T17:00:06.932Z,57.45
2022-09-27T17:02:34.175Z,57.50
2022-09-27T17:05:01.485Z,57.61
2022-09-27T17:07:28.667Z,58.04
2022-09-27T17:09:56.064Z,58.08
2022-09-27T17:12:23.303Z,57.88
2022-09-27T17:14:51.223Z,57.57
2022-09-27T17:17:18.492Z,57.89
2022-09-27T17:19:45.647Z,57.77
2022-09-27T17:22:12.863Z,57.54
2022-09-27T17:24:40.227Z,57.70
2022-09-27T17:27:07.558Z,57.45
2022-09-27T17:29:34.783Z,57.74
2022-09-27T17:32:02.063Z,57.64
2022-09-27T17:34:29.320Z,57.92
2022-09-27T17:36:56.487Z,58.29
2022-09-27T17:39:23.767Z,58.10
2022-09-27T17:41:51.374Z,58.11
2022-09-27T17:44:19.966Z,58.25
2022-09-27T17:46:47.940Z,58.47
2022-09-27T17:49:15.296Z,57.98
2022-09-27T17:51:46.070Z,57.96
2022-09-27T17:54:14.384Z,58.15
2022-09-27T17:56:43.814Z,58.27
2022-09-27T17:59:14.109Z,58.35
2022-09-27T18:01:42.716Z,58.46
2022-09-27T18:04:14.217Z,58.68
2022-09-27T18:06:45.463Z,58.86
2022-09-27T18:09:17.325Z,58.92
2022-09-27T18:11:45.813Z,59.04
2022-09-27T18:14:14.201Z,59.14
2022-09-27T18:16:43.786Z,59.23
2022-09-27T18:19:17.839Z,59.19
2022-09-27T18:21:46.097Z,59.49
2022-09-27T18:24:14.529Z,59.63
2022-09-27T18:26:44.373Z,59.36
2022-09-27T18:29:16.285Z,59.52
2022-09-27T18:31:48.478Z,59.36
2022-09-27T18:34:19.583Z,59.34
2022-09-27T18:36:48.390Z,59.38
2022-09-27T18:39:19.986Z,59.36
2022-09-27T18:41:49.495Z,59.46
2022-09-27T18:44:21.031Z,59.20
2022-09-27T18:46:50.962Z,59.15
2022-09-27T18:49:23.454Z,59.32
2022-09-27T18:51:55.273Z,59.46
2022-09-27T18:54:23.849Z,59.79
2022-09-27T18:56:53.390Z,59.53
2022-09-27T18:59:23.594Z,59.50
2022-09-27T19:01:53.654Z,59.67
2022-09-27T19:04:23.639Z,59.78
2022-09-27T19:06:56.062Z,60.00
2022-09-27T19:09:24.753Z,59.91
2022-09-27T19:11:52.537Z,59.78
2022-09-27T19:14:22.863Z,59.45
2022-09-27T19:16:51.410Z,59.33
2022-09-27T19:19:22.246Z,59.28
2022-09-27T19:21:49.853Z,59.06
2022-09-27T19:24:19.592Z,59.25
2022-09-27T19:26:49.633Z,59.28
2022-09-27T19:29:18.404Z,59.18
2022-09-27T19:31:50.491Z,59.22
2022-09-27T19:34:18.118Z,58.94
2022-09-27T19:36:45.374Z,59.27
2022-09-27T19:39:13.615Z,59.38
2022-09-27T19:41:45.010Z,59.73
2022-09-27T19:44:14.161Z,59.70
2022-09-27T19:46:43.566Z,59.64
2022-09-27T19:49:12.010Z,59.86
2022-09-27T19:51:39.165Z,59.93
2022-09-27T19:54:10.116Z,59.71
2022-09-27T19:56:37.345Z,60.01
2022-09-27T19:59:07.485Z,59.77
2022-09-27T20:01:35.038Z,60.05
2022-09-27T20:04:04.023Z,60.26
2022-09-27T20:06:32.132Z,60.17
2022-09-27T20:08:59.998Z,60.18
2022-09-27T20:11:27.133Z,60.49
2022-09-27T20:13:54.961Z,60.22
2022-09-27T20:16:26.220Z,60.05
2022-09-27T20:18:56.818Z,60.11
2022-09-27T20:21:31.297Z,60.03
2022-09-27T20:24:02.251Z,60.06
2022-09-27T20:26:32.449Z,59.92
2022-09-27T20:29:04.275Z,60.19
2022-09-27T20:31:38.079Z,60.37
2022-09-27T20:34:14.279Z,60.51
2022-09-27T20:36:44.411Z,60.57
2022-09-27T20:39:15.344Z,60.55
2022-09-27T20:41:47.121Z,60.53
2022-09-27T20:44:18.306Z,60.72
2022-09-27T20:46:47.772Z,60.58
2022-09-27T20:49:19.016Z,60.49
2022-09-27T20:51:48.580Z,60.64
2022-09-27T20:54:16.731Z,60.71
2022-09-27T20:56:47.630Z,60.80
2022-09-27T20:59:19.326Z,60.75
2022-09-27T21:01:49.532Z,60.88
2022-09-27T21:04:19.905Z,61.07
2022-09-27T21:06:47.112Z,60.99
2022-09-27T21:09:15.496Z,60.76
2022-09-27T21:11:42.937Z,60.86
2022-09-27T21:14:10.271Z,60.80
2022-09-27T21:16:37.832Z,60.84
2022-09-27T21:19:05.378Z,60.70
2022-09-27T21:21:32.658Z,60.78
2022-09-27T21:24:01.672Z,60.75
2022-09-27T21:26:33.309Z,60.78
2022-09-27T21:29:07.455Z,60.85
2022-09-27T21:31:35.131Z,60.26
2022-09-27T21:34:05.562Z,60.17
2022-09-27T21:36:36.804Z,60.41
2022-09-27T21:39:07.119Z,60.31
2022-09-27T21:41:34.417Z,60.66
2022-09-27T21:44:04.846Z,60.56
2022-09-27T21:46:32.253Z,60.85
2022-09-27T21:49:01.470Z,60.83
2022-09-27T21:51:34.416Z,60.61
2022-09-27T21:54:05.132Z,60.65
2022-09-27T21:56:35.950Z,60.62
2022-09-27T21:59:03.970Z,60.84
2022-09-27T22:01:34.411Z,60.90
2022-09-27T22:04:05.197Z,60.89
2022-09-27T22:06:38.356Z,60.83
2022-09-27T22:09:13.959Z,60.61
2022-09-27T22:11:43.603Z,60.76
2022-09-27T22:14:12.145Z,60.64
2022-09-27T22:16:39.520Z,60.50
2022-09-27T22:19:06.801Z,60.80
2022-09-27T22:21:37.613Z,60.78
2022-09-27T22:24:10.978Z,61.00
2022-09-27T22:26:40.908Z,61.03
2022-09-27T22:29:08.859Z,60.58
2022-09-27T22:31:37.530Z,60.00
2022-09-27T22:34:08.160Z,59.97
2022-09-27T22:36:35.883Z,59.35
2022-09-27T22:39:03.366Z,59.08
2022-09-27T22:41:30.701Z,59.13
2022-09-27T22:43:58.172Z,59.42
2022-09-27T22:46:25.648Z,58.73
2022-09-27T22:48:53.076Z,58.34
2022-09-27T22:51:20.213Z,58.29
2022-09-27T22:53:47.596Z,58.69
2022-09-27T22:56:20.381Z,59.29
2022-09-27T22:58:49.444Z,59.58
2022-09-27T23:01:25.030Z,59.31
2022-09-27T23:03:54.476Z,58.83
2022-09-27T23:06:23.218Z,58.88
2022-09-27T23:08:51.607Z,59.04
2022-09-27T23:11:22.593Z,59.28
2022-09-27T23:13:51.228Z,59.37
2022-09-27T23:16:23.312Z,59.42
2022-09-27T23:18:56.923Z,59.45
2022-09-27T23:21:25.979Z,59.70
2022-09-27T23:23:56.767Z,59.77
2022-09-27T23:26:26.851Z,60.07
2022-09-27T23:29:00.185Z,59.94
2022-09-27T23:31:33.106Z,59.77
2022-09-27T23:34:04.545Z,59.58
2022-09-27T23:36:31.912Z,59.90
2022-09-27T23:39:00.736Z,59.73
2022-09-27T23:41:27.938Z,59.40
2022-09-27T23:43:55.281Z,59.00
2022-09-27T23:46:22.556Z,59.11
2022-09-27T23:48:49.803Z,58.87
2022-09-27T23:51:16.937Z,58.48
2022-09-27T23:53:44.129Z,58.13
2022-09-27T23:56:16.111Z,58.04
2022-09-27T23:58:46.058Z,57.91
